deformed-offering

Nearby METAR Reports

 

KNUQ - Moffett Nas/Mtn, California, USA
Distance from station: N 9mi, 14km
Updated: Sun, 20-Oct-2019 6:56am PDT

 
Barometer: 30.11 inHg , 1019.6 hPa
2019/10/20 13:56 KNUQ 201356Z A3011 RMK AO2 SLP200 PWINO $
KSJC - San Jose, California, USA
Distance from station: NE 9mi, 14km
Updated: Sun, 20-Oct-2019 6:53am PDT
Overcast
Overcast
 Wind from WSW
Wind: WSW 3 mph , 6 km/h
Temperature: 55°F , 13°C
Dew Point: 55°F , 13°C
Humidity: 100%
Barometer: 30.10 inHg , 1019.3 hPa
Clouds: Overcast
Visibility: 7 miles , 11 km
Cloud details: Few Clouds 100 ft
Mostly Cloudy 600 ft
Overcast 1000 ft
2019/10/20 13:53 KSJC 201353Z 24003KT 7SM FEW001 BKN006 OVC010 13/13 A3010 RMK AO2 SLP193 T01280128
 
KRHV - San Jose/Reid, California, USA
Distance from station: ENE 12mi, 19km
Updated: Sun, 20-Oct-2019 6:47am PDT
Overcast
Overcast
 Wind from calm
Wind: Calm
Temperature: 55°F , 13°C
Dew Point: 52°F , 11°C
Humidity: 88%
Barometer: 30.11 inHg , 1019.6 hPa
Clouds: Overcast
Visibility: 10 miles , 16 km
Cloud details: Overcast 800 ft
2019/10/20 13:47 KRHV 201347Z 00000KT 10SM OVC008 13/11 A3011
KPAO - Palo Alto, California, USA
Distance from station: NNW 14mi, 23km
Updated: Sun, 20-Oct-2019 7:47am PDT
Few Clouds
Few Clouds
 Wind from calm
Wind: Calm
Temperature: 48°F , 9°C
Dew Point: 46°F , 8°C
Humidity: 94%
Barometer: 30.12 inHg , 1020 hPa
Clouds: Few Clouds
Visibility: 10 miles , 16 km
Cloud details: Few Clouds 1500 ft
2019/10/20 14:47 KPAO 201447Z 00000KT 10SM FEW015 09/08 A3012
 
KSQL - San Carlos Airpo, California, USA
Distance from station: NW 21mi, 34km
Updated: Sun, 20-Oct-2019 7:47am PDT
Clear
Clear
 Wind from calm
Wind: Calm
Temperature: 52°F , 11°C
Dew Point: 50°F , 10°C
Humidity: 94%
Barometer: 30.13 inHg , 1020.3 hPa
Clouds: Clear
Visibility: 10 miles , 16 km
2019/10/20 14:47 KSQL 201447Z 00000KT 10SM SKC 11/10 A3013
KE16 - San Martin, California, USA
Distance from station: ESE 27mi, 43km
Updated: Sun, 20-Oct-2019 7:35am PDT
Mist, Overcast
Mist, Overcast
 Wind from NW
Wind: NW 10 mph , 17 km/h
Temperature: 55°F , 13°C
Dew Point: 54°F , 12°C
Humidity: 94%
Barometer: 30.12 inHg , 1020 hPa
Summary: Mist
Clouds: Overcast
Visibility: 3 miles , 5 km
Cloud details: Overcast 400 ft
2019/10/20 14:35 KE16 201435Z AUTO 32009KT 3SM BR OVC004 13/12 A3012 RMK AO2
 
KWVI - Watsonville, California, USA
Distance from station: SSE 27mi, 44km
Updated: Sun, 20-Oct-2019 7:46am PDT
Mist, Overcast
Mist, Overcast
 Wind from calm
Wind: Calm
Temperature: 54°F , 12°C
Dew Point: 54°F , 12°C
Humidity: 100%
Barometer: 30.10 inHg , 1019.3 hPa
Summary: Mist
Clouds: Overcast
Visibility: 3/4 mile , 1.2 km
Cloud details: Overcast 300 ft
2019/10/20 14:46 KWVI 201446Z AUTO 00000KT 3/4SM BR OVC003 12/12 A3010 RMK AO2 T01220117
KHWD - Hayward, California, USA
Distance from station: N 28mi, 44km
Updated: Sun, 20-Oct-2019 6:54am PDT
Clear
Clear
 Wind from calm
Wind: Calm
Temperature: 52°F , 11°C
Dew Point: 50°F , 10°C
Humidity: 94%
Barometer: 30.10 inHg , 1019.3 hPa
Clouds: Clear
Visibility: 10 miles , 16 km
2019/10/20 13:54 KHWD 201354Z 00000KT 10SM CLR 11/10 A3010 RMK AO2 SLP204 T01110100
 
KSFO - San Francisco, California, USA
Distance from station: NW 30mi, 49km
Updated: Sun, 20-Oct-2019 6:56am PDT
Few Clouds
Few Clouds
 Wind from SSW
Wind: SSW 3 mph , 6 km/h
Temperature: 54°F , 12°C
Dew Point: 48°F , 9°C
Humidity: 82%
Barometer: 30.11 inHg , 1019.6 hPa
Clouds: Few Clouds
Visibility: 10 miles , 16 km
Cloud details: Few Clouds 1100 ft
2019/10/20 13:56 KSFO 201356Z 21003KT 10SM FEW011 12/09 A3011 RMK AO2 SLP195 T01170094
KHAF - Half Moon Bay, California, USA
Distance from station: WNW 31mi, 50km
Updated: Sun, 20-Oct-2019 7:35am PDT
Mist, Overcast
Mist, Overcast
 Wind from calm
Wind: Calm
Temperature: 50°F , 10°C
Dew Point: 50°F , 10°C
Humidity: 100%
Barometer: 30.11 inHg , 1019.6 hPa
Summary: Mist
Clouds: Overcast
Visibility: 3 miles , 5 km
Cloud details: Overcast 300 ft
2019/10/20 14:35 KHAF 201435Z AUTO 00000KT 3SM BR OVC003 10/10 A3011 RMK AO2
 
KOAK - Oakland, California, USA
Distance from station: NNW 31mi, 50km
Updated: Sun, 20-Oct-2019 7:30am PDT
Shallow fog, Few clouds
Shallow fog, Few clouds
 Wind from E
Wind: E 3 mph , 6 km/h
Temperature: 46°F , 8°C
Dew Point: 46°F , 8°C
Humidity: 100%
Barometer: 30.11 inHg , 1019.6 hPa
Summary: Shallow Fog
Clouds: Few Clouds
Visibility: 10 miles , 16 km
Cloud details: Few Clouds 400 ft
Few Clouds 30000 ft
2019/10/20 14:30 KOAK 201430Z 09003KT 10SM MIFG FEW004 FEW300 08/08 A3011 RMK AO2 T00830078
KLVK - Livermore, California, USA
Distance from station: NNE 31mi, 51km
Updated: Sun, 20-Oct-2019 7:49am PDT
Fog, Overcast
Fog, Overcast
 Wind from calm
Wind: Calm
Temperature: 52°F , 11°C
Dew Point: 52°F , 11°C
Humidity: 100%
Barometer: 30.12 inHg , 1020 hPa
Summary: Fog
Clouds: Overcast
Visibility: 1/4 mile , 0.4 km
Cloud details: Overcast 200 ft
2019/10/20 14:49 KLVK 201449Z 00000KT 1/4SM FG VV002 11/11 A3012 RMK AO2 TWR VIS 3/4
 
KCVH - Hollister Muni, California, USA
Distance from station: SE 42mi, 68km
Updated: Sun, 20-Oct-2019 7:40am PDT

 Wind from calm
Wind: Calm
Temperature: 55°F , 13°C
Dew Point: 54°F , 12°C
Humidity: 94%
Barometer: 30.11 inHg , 1019.6 hPa
Visibility: 8 miles , 13 km
2019/10/20 14:40 KCVH 201440Z AUTO 00000KT 8SM 13/12 A3011 RMK A01
KSNS - Salinas, California, USA
Distance from station: SSE 48mi, 77km
Updated: Sun, 20-Oct-2019 7:50am PDT
Fog, Overcast
Fog, Overcast
 Wind from calm
Wind: Calm
Temperature: 52°F , 11°C
Dew Point: 50°F , 10°C
Humidity: 94%
Barometer: 30.10 inHg , 1019.3 hPa
Summary: Fog
Clouds: Overcast
Visibility: 1/4 mile , 0.4 km
Cloud details: Overcast 200 ft
2019/10/20 14:50 KSNS 201450Z 00000KT 1/4SM R31/1200V1600FT FG VV002 11/10 A3010 RMK AO2
 
KMRY - Monterey, California, USA
Distance from station: SSE 49mi, 78km
Updated: Sun, 20-Oct-2019 7:14am PDT
Mist, Partly cloudy
Mist, Partly cloudy
 Wind from calm
Wind: Calm
Temperature: 50°F , 10°C
Dew Point: 48°F , 9°C
Humidity: 94%
Barometer: 30.09 inHg , 1019 hPa
Summary: Mist
Clouds: Partly Cloudy
Visibility: 5 miles , 8 km
Cloud details: Partly Cloudy 100 ft
2019/10/20 14:14 KMRY 201414Z 00000KT 5SM BR SCT001 10/09 A3009 RMK AO2 T01000089
KCCR - Concord, California, USA
Distance from station: N 50mi, 81km
Updated: Sun, 20-Oct-2019 6:53am PDT
Clear
Clear
 Wind from SSE
Wind: SSE 3 mph , 6 km/h
Temperature: 52°F , 11°C
Dew Point: 46°F , 8°C
Humidity: 82%
Barometer: 30.11 inHg , 1019.6 hPa
Clouds: Clear
Visibility: 10 miles , 16 km
2019/10/20 13:53 KCCR 201353Z 16003KT 10SM CLR 11/08 A3011 RMK AO2 SLP182 T01060083
deformed-offering